Scottish Viking — IBDZ — position and weather

sailwx.info

Track history (hours):
 
Tides and Currents Weather Stations Pressure Air Temp Water Temp Dewpoint Dewpoint Depression Visibility Wind Speed Wind Dir Waves Ship Positions

Scottish Viking

Last reported at 2017-Dec-12 09:31 UTC. Time now 2017-Dec-15 00:56 UTC.
Position N 58°55' E 018°00'.

Length 186 m; draft 6.7 m.

Type: Ship. MMSI: 247265800.

Date/timePositionNaut miles runAvg speedWind from/ knotsBaromVisibWave heightAir tempDewpointWater temp
2017-Dec-12 09:31N 58°55' E 018°00'12 0.6
2017-Dec-11 11:11N 58°44' E 018°13'420.6
2017-Dec-11 10:59N 58°47' E 018°08'918.0
2017-Dec-11 10:30N 58°55' E 017°60'1 2.1
2017-Dec-11 09:59N 58°54' E 017°58'0 0.0
2017-Dec-11 09:29N 58°54' E 017°58'0 0.0
2017-Dec-11 08:47N 58°54' E 017°58'0 0.0
2017-Dec-11 08:29N 58°54' E 017°58'0 0.0
2017-Dec-11 07:59N 58°54' E 017°58'1 1.6
2017-Dec-11 07:30N 58°55' E 017°59'510.7
2017-Dec-11 07:00N 58°50' E 018°04'1019.2
2017-Dec-11 06:30N 58°43' E 018°16'5 0.3
2017-Dec-10 12:07N 58°47' E 018°09'222.4
2017-Dec-10 12:01N 58°49' E 018°06'712.0
2017-Dec-10 11:25N 58°54' E 017°58'0 0.0
2017-Dec-10 10:58N 58°54' E 017°58'0 0.0
2017-Dec-10 10:28N 58°54' E 017°58'0 0.0
2017-Dec-10 09:52N 58°54' E 017°58'0 0.0
2017-Dec-10 09:19N 58°54' E 017°58'0 0.0
2017-Dec-10 08:55N 58°54' E 017°58'0 0.0
2017-Dec-10 08:25N 58°54' E 017°58'0 0.0
2017-Dec-10 07:58N 58°54' E 017°58'0 0.0
2017-Dec-10 07:28N 58°54' E 017°58'0 0.0
2017-Dec-10 06:55N 58°54' E 017°58'0 0.0
2017-Dec-10 06:25N 58°54' E 017°58'0 0.0
2017-Dec-10 06:00N 58°54' E 017°58'4 8.1
2017-Dec-10 05:30N 58°51' E 018°03'1221.3
2017-Dec-10 04:57N 58°41' E 018°16'5 0.2
2017-Dec-08 22:58N 58°45' E 018°09'919.2
2017-Dec-08 22:31N 58°53' E 018°02'3 5.7
2017-Dec-08 21:59N 58°54' E 017°58'0 0.0
2017-Dec-08 21:29N 58°54' E 017°58'0 0.0
2017-Dec-08 20:56N 58°54' E 017°58'0 0.0
2017-Dec-08 20:29N 58°54' E 017°58'0 0.0
2017-Dec-08 20:00N 58°54' E 017°58'1 1.4
2017-Dec-08 19:31N 58°55' E 017°59'714.9
2017-Dec-08 19:01N 58°48' E 018°03'7 0.3
2017-Dec-07 21:36N 58°43' E 018°12'320.4
2017-Dec-07 21:27N 58°46' E 018°09'920.0
2017-Dec-07 21:00N 58°54' E 018°01'2 3.6
2017-Dec-07 20:28N 58°54' E 017°58'0 0.0
2017-Dec-07 19:58N 58°54' E 017°58'0 0.0
2017-Dec-07 19:28N 58°54' E 017°58'0 0.0
2017-Dec-07 18:55N 58°54' E 017°58'0 0.0
2017-Dec-07 18:28N 58°54' E 017°58'0 0.0
2017-Dec-07 17:55N 58°54' E 017°58'0 0.0
2017-Dec-07 17:28N 58°54' E 017°58'0 0.0
2017-Dec-07 16:58N 58°54' E 017°58'0 0.2
2017-Dec-07 16:30N 58°54' E 017°58'2 4.6
2017-Dec-07 16:00N 58°53' E 018°02'1017.7
2017-Dec-07 15:27N 58°44' E 018°08'3 0.1
2017-Dec-06 21:34N 58°44' E 018°13'220.4
2017-Dec-06 21:29N 58°46' E 018°11'919.6
2017-Dec-06 21:00N 58°54' E 018°01'  
2017-Dec-04 10:23N 58°54' E 017°58'0 0.0
2017-Dec-04 09:56N 58°54' E 017°58'0 0.0
2017-Dec-04 09:30N 58°54' E 017°58'4 8.7
2017-Dec-04 09:01N 58°51' E 018°03'1019.3
2017-Dec-04 08:30N 58°43' E 018°14'1 0.0
2017-Dec-02 21:06N 58°43' E 018°12'222.8
2017-Dec-02 21:00N 58°45' E 018°09'1122.0
2017-Dec-02 20:30N 58°55' E 017°60'1 2.4
2017-Dec-02 20:00N 58°54' E 017°58'0 0.0
2017-Dec-02 19:30N 58°54' E 017°58'0 0.0
2017-Dec-02 19:00N 58°54' E 017°58'0 0.0
2017-Dec-02 18:30N 58°54' E 017°58'0 0.0
2017-Dec-02 18:00N 58°54' E 017°58'0 0.0
2017-Dec-02 17:30N 58°54' E 017°58'1 2.1
2017-Dec-02 17:00N 58°55' E 017°59'1018.9
2017-Dec-02 16:29N 58°46' E 018°09'2 0.1
2017-Dec-01 23:10N 58°46' E 018°12'422.4
2017-Dec-01 23:00N 58°48' E 018°07'815.6
2017-Dec-01 22:30N 58°54' E 017°58'0 0.0
2017-Dec-01 22:00N 58°54' E 017°58'0 0.0
2017-Dec-01 21:30N 58°54' E 017°58'0 0.0
2017-Dec-01 21:00N 58°54' E 017°58'0 0.0
2017-Dec-01 20:27N 58°54' E 017°58'0 0.0
2017-Dec-01 20:00N 58°54' E 017°58'0 0.0
2017-Dec-01 19:31N 58°54' E 017°58'3 5.7
2017-Dec-01 19:00N 58°53' E 018°02'816.0
2017-Dec-01 18:30N 58°46' E 018°11'713.5
2017-Dec-01 18:01N 58°50' E 018°23'5 9.9
2017-Dec-01 17:30N 58°50' E 018°32'  
Track history (hours):
 
Tides and Currents Weather Stations Pressure Air Temp Water Temp Dewpoint Dewpoint Depression Visibility Wind Speed Wind Dir Waves Ship Positions

Scottish Viking

Last reported at 2017-Dec-12 09:31 UTC. Time now 2017-Dec-15 00:56 UTC.
Position N 58°55' E 018°00'.

Length 186 m; draft 6.7 m.

Type: Ship. MMSI: 247265800.

Date/timePositionNaut miles runAvg speedWind from/ knotsBaromVisibWave heightAir tempDewpointWater temp
2017-Dec-12 09:31N 58°55' E 018°00'12 0.6
2017-Dec-11 11:11N 58°44' E 018°13'420.6
2017-Dec-11 10:59N 58°47' E 018°08'918.0
2017-Dec-11 10:30N 58°55' E 017°60'1 2.1
2017-Dec-11 09:59N 58°54' E 017°58'0 0.0
2017-Dec-11 09:29N 58°54' E 017°58'0 0.0
2017-Dec-11 08:47N 58°54' E 017°58'0 0.0
2017-Dec-11 08:29N 58°54' E 017°58'0 0.0
2017-Dec-11 07:59N 58°54' E 017°58'1 1.6
2017-Dec-11 07:30N 58°55' E 017°59'510.7
2017-Dec-11 07:00N 58°50' E 018°04'1019.2
2017-Dec-11 06:30N 58°43' E 018°16'5 0.3
2017-Dec-10 12:07N 58°47' E 018°09'222.4
2017-Dec-10 12:01N 58°49' E 018°06'712.0
2017-Dec-10 11:25N 58°54' E 017°58'0 0.0
2017-Dec-10 10:58N 58°54' E 017°58'0 0.0
2017-Dec-10 10:28N 58°54' E 017°58'0 0.0
2017-Dec-10 09:52N 58°54' E 017°58'0 0.0
2017-Dec-10 09:19N 58°54' E 017°58'0 0.0
2017-Dec-10 08:55N 58°54' E 017°58'0 0.0
2017-Dec-10 08:25N 58°54' E 017°58'0 0.0
2017-Dec-10 07:58N 58°54' E 017°58'0 0.0
2017-Dec-10 07:28N 58°54' E 017°58'0 0.0
2017-Dec-10 06:55N 58°54' E 017°58'0 0.0
2017-Dec-10 06:25N 58°54' E 017°58'0 0.0
2017-Dec-10 06:00N 58°54' E 017°58'4 8.1
2017-Dec-10 05:30N 58°51' E 018°03'1221.3
2017-Dec-10 04:57N 58°41' E 018°16'5 0.2
2017-Dec-08 22:58N 58°45' E 018°09'919.2
2017-Dec-08 22:31N 58°53' E 018°02'3 5.7
2017-Dec-08 21:59N 58°54' E 017°58'0 0.0
2017-Dec-08 21:29N 58°54' E 017°58'0 0.0
2017-Dec-08 20:56N 58°54' E 017°58'0 0.0
2017-Dec-08 20:29N 58°54' E 017°58'0 0.0
2017-Dec-08 20:00N 58°54' E 017°58'1 1.4
2017-Dec-08 19:31N 58°55' E 017°59'714.9
2017-Dec-08 19:01N 58°48' E 018°03'7 0.3
2017-Dec-07 21:36N 58°43' E 018°12'320.4
2017-Dec-07 21:27N 58°46' E 018°09'920.0
2017-Dec-07 21:00N 58°54' E 018°01'2 3.6
2017-Dec-07 20:28N 58°54' E 017°58'0 0.0
2017-Dec-07 19:58N 58°54' E 017°58'0 0.0
2017-Dec-07 19:28N 58°54' E 017°58'0 0.0
2017-Dec-07 18:55N 58°54' E 017°58'0 0.0
2017-Dec-07 18:28N 58°54' E 017°58'0 0.0
2017-Dec-07 17:55N 58°54' E 017°58'0 0.0
2017-Dec-07 17:28N 58°54' E 017°58'0 0.0
2017-Dec-07 16:58N 58°54' E 017°58'0 0.2
2017-Dec-07 16:30N 58°54' E 017°58'2 4.6
2017-Dec-07 16:00N 58°53' E 018°02'1017.7
2017-Dec-07 15:27N 58°44' E 018°08'3 0.1
2017-Dec-06 21:34N 58°44' E 018°13'220.4
2017-Dec-06 21:29N 58°46' E 018°11'919.6
2017-Dec-06 21:00N 58°54' E 018°01'  
2017-Dec-04 10:23N 58°54' E 017°58'0 0.0
2017-Dec-04 09:56N 58°54' E 017°58'0 0.0
2017-Dec-04 09:30N 58°54' E 017°58'4 8.7
2017-Dec-04 09:01N 58°51' E 018°03'1019.3
2017-Dec-04 08:30N 58°43' E 018°14'1 0.0
2017-Dec-02 21:06N 58°43' E 018°12'222.8
2017-Dec-02 21:00N 58°45' E 018°09'1122.0
2017-Dec-02 20:30N 58°55' E 017°60'1 2.4
2017-Dec-02 20:00N 58°54' E 017°58'0 0.0
2017-Dec-02 19:30N 58°54' E 017°58'0 0.0
2017-Dec-02 19:00N 58°54' E 017°58'0 0.0
2017-Dec-02 18:30N 58°54' E 017°58'0 0.0
2017-Dec-02 18:00N 58°54' E 017°58'0 0.0
2017-Dec-02 17:30N 58°54' E 017°58'1 2.1
2017-Dec-02 17:00N 58°55' E 017°59'1018.9
2017-Dec-02 16:29N 58°46' E 018°09'2 0.1
2017-Dec-01 23:10N 58°46' E 018°12'422.4
2017-Dec-01 23:00N 58°48' E 018°07'815.6
2017-Dec-01 22:30N 58°54' E 017°58'0 0.0
2017-Dec-01 22:00N 58°54' E 017°58'0 0.0
2017-Dec-01 21:30N 58°54' E 017°58'0 0.0
2017-Dec-01 21:00N 58°54' E 017°58'0 0.0
2017-Dec-01 20:27N 58°54' E 017°58'0 0.0
2017-Dec-01 20:00N 58°54' E 017°58'0 0.0
2017-Dec-01 19:31N 58°54' E 017°58'3 5.7
2017-Dec-01 19:00N 58°53' E 018°02'816.0
2017-Dec-01 18:30N 58°46' E 018°11'713.5
2017-Dec-01 18:01N 58°50' E 018°23'5 9.9
2017-Dec-01 17:30N 58°50' E 018°32'  

Dump ship's entire track history